<?xml version="1.0" encoding="utf-8"?>
<gpx xmlns:xsi="http://www.w3.org/2001/XMLSchema-instance" xmlns:xsd="http://www.w3.org/2001/XMLSchema" version="1.1" creator="Shapelink.com" xmlns="http://www.topografix.com/GPX/1/1" xmlns:gpxtpx="http://www.garmin.com/xmlschemas/TrackPointExtension/v1">
  <metadata>
    <name>Løping 4.10 km, 2012-05-09</name>
    <desc></desc>
    <author><name>Mikael Blom</name></author> 
    <time>2012-05-09T20:48:28Z</time>
  </metadata>
  <trk>
    <name>Løping 4.10 km, 2012-05-09</name>
    <trkseg>
      <trkpt lat="59.9775959" lon="17.7390224">
        <ele>39.0707</ele>
        <time>2012-05-09T20:48:28Z</time>
      </trkpt>
      <trkpt lat="59.9774706" lon="17.7389693">
        <ele>55.4131</ele>
        <time>2012-05-09T20:48:30Z</time>
      </trkpt>
      <trkpt lat="59.9773937" lon="17.7391685">
        <ele>42.4354</ele>
        <time>2012-05-09T20:48:33Z</time>
      </trkpt>
      <trkpt lat="59.9773526" lon="17.7391999">
        <ele>41.9547</ele>
        <time>2012-05-09T20:48:35Z</time>
      </trkpt>
      <trkpt lat="59.9772739" lon="17.7392072">
        <ele>46.2806</ele>
        <time>2012-05-09T20:48:40Z</time>
      </trkpt>
      <trkpt lat="59.9771917" lon="17.7392539">
        <ele>48.2034</ele>
        <time>2012-05-09T20:48:43Z</time>
      </trkpt>
      <trkpt lat="59.97708" lon="17.7393388">
        <ele>47.7225</ele>
        <time>2012-05-09T20:48:49Z</time>
      </trkpt>
      <trkpt lat="59.9770324" lon="17.7393596">
        <ele>47.7225</ele>
        <time>2012-05-09T20:48:51Z</time>
      </trkpt>
      <trkpt lat="59.9769012" lon="17.739419">
        <ele>46.7612</ele>
        <time>2012-05-09T20:48:56Z</time>
      </trkpt>
      <trkpt lat="59.9767883" lon="17.7394624">
        <ele>45.3192</ele>
        <time>2012-05-09T20:49:01Z</time>
      </trkpt>
      <trkpt lat="59.9766749" lon="17.7395168">
        <ele>43.8773</ele>
        <time>2012-05-09T20:49:05Z</time>
      </trkpt>
      <trkpt lat="59.976531" lon="17.7396631">
        <ele>40.5128</ele>
        <time>2012-05-09T20:49:10Z</time>
      </trkpt>
      <trkpt lat="59.9764263" lon="17.7397867">
        <ele>39.0707</ele>
        <time>2012-05-09T20:49:14Z</time>
      </trkpt>
      <trkpt lat="59.9763489" lon="17.7398287">
        <ele>37.6287</ele>
        <time>2012-05-09T20:49:17Z</time>
      </trkpt>
      <trkpt lat="59.9762227" lon="17.7397678">
        <ele>35.7061</ele>
        <time>2012-05-09T20:49:22Z</time>
      </trkpt>
      <trkpt lat="59.9761278" lon="17.7396278">
        <ele>33.7834</ele>
        <time>2012-05-09T20:49:27Z</time>
      </trkpt>
      <trkpt lat="59.9760269" lon="17.7394434">
        <ele>31.3801</ele>
        <time>2012-05-09T20:49:32Z</time>
      </trkpt>
      <trkpt lat="59.975969" lon="17.7393347">
        <ele>30.8995</ele>
        <time>2012-05-09T20:49:35Z</time>
      </trkpt>
      <trkpt lat="59.9758941" lon="17.7391873">
        <ele>30.8995</ele>
        <time>2012-05-09T20:49:39Z</time>
      </trkpt>
      <trkpt lat="59.9757781" lon="17.7389762">
        <ele>32.8223</ele>
        <time>2012-05-09T20:49:45Z</time>
      </trkpt>
      <trkpt lat="59.9756623" lon="17.7388038">
        <ele>33.7834</ele>
        <time>2012-05-09T20:49:50Z</time>
      </trkpt>
      <trkpt lat="59.9755615" lon="17.7385939">
        <ele>33.3029</ele>
        <time>2012-05-09T20:49:56Z</time>
      </trkpt>
      <trkpt lat="59.9754663" lon="17.738443">
        <ele>32.3416</ele>
        <time>2012-05-09T20:50:01Z</time>
      </trkpt>
      <trkpt lat="59.9753878" lon="17.7382979">
        <ele>32.3416</ele>
        <time>2012-05-09T20:50:05Z</time>
      </trkpt>
      <trkpt lat="59.9752851" lon="17.738119">
        <ele>32.3416</ele>
        <time>2012-05-09T20:50:10Z</time>
      </trkpt>
      <trkpt lat="59.9751935" lon="17.7379676">
        <ele>32.3416</ele>
        <time>2012-05-09T20:50:15Z</time>
      </trkpt>
      <trkpt lat="59.9751145" lon="17.7378395">
        <ele>31.8607</ele>
        <time>2012-05-09T20:50:19Z</time>
      </trkpt>
      <trkpt lat="59.9751011" lon="17.7377674">
        <ele>31.8607</ele>
        <time>2012-05-09T20:50:21Z</time>
      </trkpt>
      <trkpt lat="59.9750464" lon="17.7376704">
        <ele>32.8223</ele>
        <time>2012-05-09T20:50:24Z</time>
      </trkpt>
      <trkpt lat="59.9749555" lon="17.7375237">
        <ele>32.3416</ele>
        <time>2012-05-09T20:50:29Z</time>
      </trkpt>
      <trkpt lat="59.9748835" lon="17.7373756">
        <ele>31.8607</ele>
        <time>2012-05-09T20:50:33Z</time>
      </trkpt>
      <trkpt lat="59.974776" lon="17.7371502">
        <ele>32.8223</ele>
        <time>2012-05-09T20:50:39Z</time>
      </trkpt>
      <trkpt lat="59.9747348" lon="17.7370418">
        <ele>33.7834</ele>
        <time>2012-05-09T20:50:42Z</time>
      </trkpt>
      <trkpt lat="59.974645" lon="17.7367991">
        <ele>33.7834</ele>
        <time>2012-05-09T20:50:48Z</time>
      </trkpt>
      <trkpt lat="59.9745945" lon="17.7366932">
        <ele>33.3029</ele>
        <time>2012-05-09T20:50:51Z</time>
      </trkpt>
      <trkpt lat="59.9745455" lon="17.736531">
        <ele>32.8223</ele>
        <time>2012-05-09T20:50:55Z</time>
      </trkpt>
      <trkpt lat="59.9745023" lon="17.7363543">
        <ele>32.8223</ele>
        <time>2012-05-09T20:50:59Z</time>
      </trkpt>
      <trkpt lat="59.9744656" lon="17.7362368">
        <ele>32.3416</ele>
        <time>2012-05-09T20:51:02Z</time>
      </trkpt>
      <trkpt lat="59.9744304" lon="17.7361129">
        <ele>32.3416</ele>
        <time>2012-05-09T20:51:05Z</time>
      </trkpt>
      <trkpt lat="59.9743965" lon="17.7359034">
        <ele>31.3801</ele>
        <time>2012-05-09T20:51:10Z</time>
      </trkpt>
      <trkpt lat="59.9743604" lon="17.7356976">
        <ele>29.9381</ele>
        <time>2012-05-09T20:51:15Z</time>
      </trkpt>
      <trkpt lat="59.9743428" lon="17.7355159">
        <ele>29.9381</ele>
        <time>2012-05-09T20:51:19Z</time>
      </trkpt>
      <trkpt lat="59.974323" lon="17.7353137">
        <ele>29.9381</ele>
        <time>2012-05-09T20:51:23Z</time>
      </trkpt>
      <trkpt lat="59.9743086" lon="17.7350657">
        <ele>28.9769</ele>
        <time>2012-05-09T20:51:28Z</time>
      </trkpt>
      <trkpt lat="59.9742893" lon="17.7347602">
        <ele>30.4188</ele>
        <time>2012-05-09T20:51:34Z</time>
      </trkpt>
      <trkpt lat="59.9742862" lon="17.7344975">
        <ele>31.3801</ele>
        <time>2012-05-09T20:51:39Z</time>
      </trkpt>
      <trkpt lat="59.9742957" lon="17.7342436">
        <ele>29.9381</ele>
        <time>2012-05-09T20:51:44Z</time>
      </trkpt>
      <trkpt lat="59.9743171" lon="17.7339504">
        <ele>28.9769</ele>
        <time>2012-05-09T20:51:50Z</time>
      </trkpt>
      <trkpt lat="59.9743308" lon="17.7336402">
        <ele>28.4962</ele>
        <time>2012-05-09T20:51:56Z</time>
      </trkpt>
      <trkpt lat="59.9743396" lon="17.7333915">
        <ele>28.0155</ele>
        <time>2012-05-09T20:52:01Z</time>
      </trkpt>
      <trkpt lat="59.9743437" lon="17.7331362">
        <ele>27.0543</ele>
        <time>2012-05-09T20:52:06Z</time>
      </trkpt>
      <trkpt lat="59.9743481" lon="17.7328776">
        <ele>26.5736</ele>
        <time>2012-05-09T20:52:11Z</time>
      </trkpt>
      <trkpt lat="59.9743453" lon="17.7325636">
        <ele>26.0929</ele>
        <time>2012-05-09T20:52:17Z</time>
      </trkpt>
      <trkpt lat="59.9743496" lon="17.7322942">
        <ele>25.6123</ele>
        <time>2012-05-09T20:52:23Z</time>
      </trkpt>
      <trkpt lat="59.9743393" lon="17.731956">
        <ele>25.6123</ele>
        <time>2012-05-09T20:52:30Z</time>
      </trkpt>
      <trkpt lat="59.9743308" lon="17.7317416">
        <ele>25.6123</ele>
        <time>2012-05-09T20:52:34Z</time>
      </trkpt>
      <trkpt lat="59.9743306" lon="17.7314806">
        <ele>25.6123</ele>
        <time>2012-05-09T20:52:39Z</time>
      </trkpt>
      <trkpt lat="59.9743347" lon="17.7313339">
        <ele>26.0929</ele>
        <time>2012-05-09T20:52:42Z</time>
      </trkpt>
      <trkpt lat="59.9743585" lon="17.7310962">
        <ele>26.5736</ele>
        <time>2012-05-09T20:52:47Z</time>
      </trkpt>
      <trkpt lat="59.9743683" lon="17.7308349">
        <ele>26.0929</ele>
        <time>2012-05-09T20:52:52Z</time>
      </trkpt>
      <trkpt lat="59.9743842" lon="17.7305718">
        <ele>25.1317</ele>
        <time>2012-05-09T20:52:57Z</time>
      </trkpt>
      <trkpt lat="59.974411" lon="17.730343">
        <ele>25.1317</ele>
        <time>2012-05-09T20:53:02Z</time>
      </trkpt>
      <trkpt lat="59.9744429" lon="17.7300581">
        <ele>26.0929</ele>
        <time>2012-05-09T20:53:08Z</time>
      </trkpt>
      <trkpt lat="59.9744702" lon="17.729873">
        <ele>26.5736</ele>
        <time>2012-05-09T20:53:12Z</time>
      </trkpt>
      <trkpt lat="59.9744911" lon="17.7296829">
        <ele>27.0543</ele>
        <time>2012-05-09T20:53:16Z</time>
      </trkpt>
      <trkpt lat="59.9745039" lon="17.7293786">
        <ele>28.9769</ele>
        <time>2012-05-09T20:53:22Z</time>
      </trkpt>
      <trkpt lat="59.9745046" lon="17.7291336">
        <ele>29.4575</ele>
        <time>2012-05-09T20:53:27Z</time>
      </trkpt>
      <trkpt lat="59.9745106" lon="17.7289439">
        <ele>29.4575</ele>
        <time>2012-05-09T20:53:31Z</time>
      </trkpt>
      <trkpt lat="59.9745062" lon="17.7287351">
        <ele>29.9381</ele>
        <time>2012-05-09T20:53:35Z</time>
      </trkpt>
      <trkpt lat="59.9744988" lon="17.728627">
        <ele>30.4188</ele>
        <time>2012-05-09T20:53:37Z</time>
      </trkpt>
      <trkpt lat="59.9744794" lon="17.7282974">
        <ele>29.9381</ele>
        <time>2012-05-09T20:53:43Z</time>
      </trkpt>
      <trkpt lat="59.9744662" lon="17.7280048">
        <ele>28.4962</ele>
        <time>2012-05-09T20:53:49Z</time>
      </trkpt>
      <trkpt lat="59.9744625" lon="17.7277959">
        <ele>28.4962</ele>
        <time>2012-05-09T20:53:53Z</time>
      </trkpt>
      <trkpt lat="59.9744506" lon="17.7275314">
        <ele>28.0155</ele>
        <time>2012-05-09T20:53:58Z</time>
      </trkpt>
      <trkpt lat="59.9744387" lon="17.7272343">
        <ele>28.4962</ele>
        <time>2012-05-09T20:54:04Z</time>
      </trkpt>
      <trkpt lat="59.9744356" lon="17.7269262">
        <ele>28.9769</ele>
        <time>2012-05-09T20:54:10Z</time>
      </trkpt>
      <trkpt lat="59.9744294" lon="17.7266672">
        <ele>29.9381</ele>
        <time>2012-05-09T20:54:15Z</time>
      </trkpt>
      <trkpt lat="59.9744245" lon="17.726495">
        <ele>28.0155</ele>
        <time>2012-05-09T20:54:19Z</time>
      </trkpt>
      <trkpt lat="59.9744207" lon="17.7262875">
        <ele>27.0543</ele>
        <time>2012-05-09T20:54:23Z</time>
      </trkpt>
      <trkpt lat="59.9744014" lon="17.7259983">
        <ele>26.0929</ele>
        <time>2012-05-09T20:54:29Z</time>
      </trkpt>
      <trkpt lat="59.9743744" lon="17.7257177">
        <ele>26.0929</ele>
        <time>2012-05-09T20:54:35Z</time>
      </trkpt>
      <trkpt lat="59.9743506" lon="17.725425">
        <ele>27.0543</ele>
        <time>2012-05-09T20:54:41Z</time>
      </trkpt>
      <trkpt lat="59.974337" lon="17.7252246">
        <ele>28.0155</ele>
        <time>2012-05-09T20:54:45Z</time>
      </trkpt>
      <trkpt lat="59.9743276" lon="17.7250682">
        <ele>28.9769</ele>
        <time>2012-05-09T20:54:48Z</time>
      </trkpt>
      <trkpt lat="59.9743144" lon="17.7248949">
        <ele>28.9769</ele>
        <time>2012-05-09T20:54:52Z</time>
      </trkpt>
      <trkpt lat="59.9742774" lon="17.7246277">
        <ele>28.0155</ele>
        <time>2012-05-09T20:54:57Z</time>
      </trkpt>
      <trkpt lat="59.9742326" lon="17.7244336">
        <ele>27.5349</ele>
        <time>2012-05-09T20:55:01Z</time>
      </trkpt>
      <trkpt lat="59.9741865" lon="17.7241993">
        <ele>26.5736</ele>
        <time>2012-05-09T20:55:06Z</time>
      </trkpt>
      <trkpt lat="59.974151" lon="17.7240439">
        <ele>26.5736</ele>
        <time>2012-05-09T20:55:10Z</time>
      </trkpt>
      <trkpt lat="59.9741223" lon="17.7238704">
        <ele>26.0929</ele>
        <time>2012-05-09T20:55:14Z</time>
      </trkpt>
      <trkpt lat="59.9740926" lon="17.7236809">
        <ele>26.0929</ele>
        <time>2012-05-09T20:55:18Z</time>
      </trkpt>
      <trkpt lat="59.9740361" lon="17.7234039">
        <ele>26.0929</ele>
        <time>2012-05-09T20:55:24Z</time>
      </trkpt>
      <trkpt lat="59.9739806" lon="17.723135">
        <ele>26.5736</ele>
        <time>2012-05-09T20:55:30Z</time>
      </trkpt>
      <trkpt lat="59.9739124" lon="17.7228417">
        <ele>26.5736</ele>
        <time>2012-05-09T20:55:37Z</time>
      </trkpt>
      <trkpt lat="59.9738502" lon="17.7226319">
        <ele>26.5736</ele>
        <time>2012-05-09T20:55:42Z</time>
      </trkpt>
      <trkpt lat="59.9737896" lon="17.7224241">
        <ele>27.0543</ele>
        <time>2012-05-09T20:55:47Z</time>
      </trkpt>
      <trkpt lat="59.9737782" lon="17.722379">
        <ele>27.5349</ele>
        <time>2012-05-09T20:55:48Z</time>
      </trkpt>
      <trkpt lat="59.9737133" lon="17.7221325">
        <ele>27.0543</ele>
        <time>2012-05-09T20:55:54Z</time>
      </trkpt>
      <trkpt lat="59.9736362" lon="17.7219392">
        <ele>27.5349</ele>
        <time>2012-05-09T20:55:59Z</time>
      </trkpt>
      <trkpt lat="59.9735963" lon="17.7218252">
        <ele>27.5349</ele>
        <time>2012-05-09T20:56:02Z</time>
      </trkpt>
      <trkpt lat="59.9734944" lon="17.7216119">
        <ele>27.5349</ele>
        <time>2012-05-09T20:56:08Z</time>
      </trkpt>
      <trkpt lat="59.9734795" lon="17.7215787">
        <ele>27.5349</ele>
        <time>2012-05-09T20:56:09Z</time>
      </trkpt>
      <trkpt lat="59.9734306" lon="17.7214439">
        <ele>27.5349</ele>
        <time>2012-05-09T20:56:13Z</time>
      </trkpt>
      <trkpt lat="59.973375" lon="17.7213103">
        <ele>28.0155</ele>
        <time>2012-05-09T20:56:17Z</time>
      </trkpt>
      <trkpt lat="59.9732588" lon="17.7211274">
        <ele>29.4575</ele>
        <time>2012-05-09T20:56:23Z</time>
      </trkpt>
      <trkpt lat="59.9732354" lon="17.7210991">
        <ele>29.4575</ele>
        <time>2012-05-09T20:56:24Z</time>
      </trkpt>
      <trkpt lat="59.9731457" lon="17.7209598">
        <ele>30.4188</ele>
        <time>2012-05-09T20:56:29Z</time>
      </trkpt>
      <trkpt lat="59.9730738" lon="17.7208552">
        <ele>31.3801</ele>
        <time>2012-05-09T20:56:33Z</time>
      </trkpt>
      <trkpt lat="59.972939" lon="17.7207083">
        <ele>33.3029</ele>
        <time>2012-05-09T20:56:39Z</time>
      </trkpt>
      <trkpt lat="59.972825" lon="17.7205868">
        <ele>34.7449</ele>
        <time>2012-05-09T20:56:44Z</time>
      </trkpt>
      <trkpt lat="59.9727565" lon="17.7205199">
        <ele>35.7061</ele>
        <time>2012-05-09T20:56:47Z</time>
      </trkpt>
      <trkpt lat="59.9726283" lon="17.7203832">
        <ele>38.1094</ele>
        <time>2012-05-09T20:56:53Z</time>
      </trkpt>
      <trkpt lat="59.9725463" lon="17.7203102">
        <ele>40.9934</ele>
        <time>2012-05-09T20:56:57Z</time>
      </trkpt>
      <trkpt lat="59.9724387" lon="17.7202181">
        <ele>43.8773</ele>
        <time>2012-05-09T20:57:02Z</time>
      </trkpt>
      <trkpt lat="59.972349" lon="17.7201438">
        <ele>44.8386</ele>
        <time>2012-05-09T20:57:06Z</time>
      </trkpt>
      <trkpt lat="59.972268" lon="17.7200766">
        <ele>46.7612</ele>
        <time>2012-05-09T20:57:10Z</time>
      </trkpt>
      <trkpt lat="59.9722031" lon="17.7200191">
        <ele>48.2034</ele>
        <time>2012-05-09T20:57:13Z</time>
      </trkpt>
      <trkpt lat="59.9721124" lon="17.7199484">
        <ele>50.126</ele>
        <time>2012-05-09T20:57:17Z</time>
      </trkpt>
      <trkpt lat="59.9720306" lon="17.719887">
        <ele>49.6453</ele>
        <time>2012-05-09T20:57:20Z</time>
      </trkpt>
      <trkpt lat="59.9719878" lon="17.7198445">
        <ele>48.684</ele>
        <time>2012-05-09T20:57:22Z</time>
      </trkpt>
      <trkpt lat="59.9719724" lon="17.7198083">
        <ele>49.6453</ele>
        <time>2012-05-09T20:57:24Z</time>
      </trkpt>
      <trkpt lat="59.9718294" lon="17.7196953">
        <ele>50.6066</ele>
        <time>2012-05-09T20:57:30Z</time>
      </trkpt>
      <trkpt lat="59.9717362" lon="17.7196182">
        <ele>51.0872</ele>
        <time>2012-05-09T20:57:34Z</time>
      </trkpt>
      <trkpt lat="59.9716275" lon="17.7195209">
        <ele>50.126</ele>
        <time>2012-05-09T20:57:39Z</time>
      </trkpt>
      <trkpt lat="59.9714945" lon="17.7193912">
        <ele>48.684</ele>
        <time>2012-05-09T20:57:45Z</time>
      </trkpt>
      <trkpt lat="59.9714066" lon="17.7193166">
        <ele>47.2418</ele>
        <time>2012-05-09T20:57:49Z</time>
      </trkpt>
      <trkpt lat="59.9713144" lon="17.7192379">
        <ele>45.3192</ele>
        <time>2012-05-09T20:57:53Z</time>
      </trkpt>
      <trkpt lat="59.9712617" lon="17.7191824">
        <ele>45.7999</ele>
        <time>2012-05-09T20:57:56Z</time>
      </trkpt>
      <trkpt lat="59.9711722" lon="17.7190944">
        <ele>45.3192</ele>
        <time>2012-05-09T20:58:00Z</time>
      </trkpt>
      <trkpt lat="59.9710961" lon="17.719028">
        <ele>48.2034</ele>
        <time>2012-05-09T20:58:04Z</time>
      </trkpt>
      <trkpt lat="59.9709823" lon="17.7189533">
        <ele>48.2034</ele>
        <time>2012-05-09T20:58:08Z</time>
      </trkpt>
      <trkpt lat="59.9708897" lon="17.7188757">
        <ele>48.684</ele>
        <time>2012-05-09T20:58:12Z</time>
      </trkpt>
      <trkpt lat="59.9707974" lon="17.7187914">
        <ele>47.7225</ele>
        <time>2012-05-09T20:58:16Z</time>
      </trkpt>
      <trkpt lat="59.9707518" lon="17.7187019">
        <ele>47.7225</ele>
        <time>2012-05-09T20:58:20Z</time>
      </trkpt>
      <trkpt lat="59.970683" lon="17.7186446">
        <ele>48.684</ele>
        <time>2012-05-09T20:58:23Z</time>
      </trkpt>
      <trkpt lat="59.9705873" lon="17.7185535">
        <ele>49.6453</ele>
        <time>2012-05-09T20:58:28Z</time>
      </trkpt>
      <trkpt lat="59.9704975" lon="17.7184816">
        <ele>51.0872</ele>
        <time>2012-05-09T20:58:32Z</time>
      </trkpt>
      <trkpt lat="59.9703882" lon="17.7183864">
        <ele>51.5679</ele>
        <time>2012-05-09T20:58:37Z</time>
      </trkpt>
      <trkpt lat="59.97026" lon="17.7182901">
        <ele>51.5679</ele>
        <time>2012-05-09T20:58:42Z</time>
      </trkpt>
      <trkpt lat="59.9701351" lon="17.7181931">
        <ele>51.0872</ele>
        <time>2012-05-09T20:58:47Z</time>
      </trkpt>
      <trkpt lat="59.9700175" lon="17.7180829">
        <ele>51.0872</ele>
        <time>2012-05-09T20:58:52Z</time>
      </trkpt>
      <trkpt lat="59.9698767" lon="17.7179558">
        <ele>51.0872</ele>
        <time>2012-05-09T20:58:58Z</time>
      </trkpt>
      <trkpt lat="59.9697816" lon="17.7178604">
        <ele>49.6453</ele>
        <time>2012-05-09T20:59:02Z</time>
      </trkpt>
      <trkpt lat="59.9696456" lon="17.7177548">
        <ele>46.7612</ele>
        <time>2012-05-09T20:59:08Z</time>
      </trkpt>
      <trkpt lat="59.9695128" lon="17.7176652">
        <ele>45.3192</ele>
        <time>2012-05-09T20:59:14Z</time>
      </trkpt>
      <trkpt lat="59.9693736" lon="17.717584">
        <ele>44.358</ele>
        <time>2012-05-09T20:59:20Z</time>
      </trkpt>
      <trkpt lat="59.9691774" lon="17.717501">
        <ele>44.358</ele>
        <time>2012-05-09T20:59:28Z</time>
      </trkpt>
      <trkpt lat="59.9689951" lon="17.7174171">
        <ele>41.9547</ele>
        <time>2012-05-09T20:59:35Z</time>
      </trkpt>
      <trkpt lat="59.968943" lon="17.7173946">
        <ele>40.9934</ele>
        <time>2012-05-09T20:59:37Z</time>
      </trkpt>
      <trkpt lat="59.9689209" lon="17.7173828">
        <ele>40.5128</ele>
        <time>2012-05-09T20:59:38Z</time>
      </trkpt>
      <trkpt lat="59.9688955" lon="17.7172313">
        <ele>39.0707</ele>
        <time>2012-05-09T20:59:42Z</time>
      </trkpt>
      <trkpt lat="59.968967" lon="17.7172378">
        <ele>38.5901</ele>
        <time>2012-05-09T20:59:45Z</time>
      </trkpt>
      <trkpt lat="59.9690173" lon="17.7172628">
        <ele>38.1094</ele>
        <time>2012-05-09T20:59:47Z</time>
      </trkpt>
      <trkpt lat="59.9691707" lon="17.7173276">
        <ele>37.1481</ele>
        <time>2012-05-09T20:59:53Z</time>
      </trkpt>
      <trkpt lat="59.9693109" lon="17.7173944">
        <ele>35.2255</ele>
        <time>2012-05-09T20:59:59Z</time>
      </trkpt>
      <trkpt lat="59.9694207" lon="17.7174415">
        <ele>33.7834</ele>
        <time>2012-05-09T21:00:03Z</time>
      </trkpt>
      <trkpt lat="59.9695169" lon="17.7174969">
        <ele>32.3416</ele>
        <time>2012-05-09T21:00:07Z</time>
      </trkpt>
      <trkpt lat="59.969656" lon="17.7175927">
        <ele>29.4575</ele>
        <time>2012-05-09T21:00:13Z</time>
      </trkpt>
      <trkpt lat="59.9697756" lon="17.717694">
        <ele>28.4962</ele>
        <time>2012-05-09T21:00:18Z</time>
      </trkpt>
      <trkpt lat="59.969887" lon="17.7177809">
        <ele>29.4575</ele>
        <time>2012-05-09T21:00:23Z</time>
      </trkpt>
      <trkpt lat="59.9700257" lon="17.7178972">
        <ele>30.4188</ele>
        <time>2012-05-09T21:00:29Z</time>
      </trkpt>
      <trkpt lat="59.9700567" lon="17.7179434">
        <ele>30.4188</ele>
        <time>2012-05-09T21:00:31Z</time>
      </trkpt>
      <trkpt lat="59.9701407" lon="17.7180196">
        <ele>31.3801</ele>
        <time>2012-05-09T21:00:35Z</time>
      </trkpt>
      <trkpt lat="59.9702742" lon="17.7181361">
        <ele>32.8223</ele>
        <time>2012-05-09T21:00:41Z</time>
      </trkpt>
      <trkpt lat="59.9704123" lon="17.7182621">
        <ele>34.2642</ele>
        <time>2012-05-09T21:00:47Z</time>
      </trkpt>
      <trkpt lat="59.9705002" lon="17.7183428">
        <ele>33.7834</ele>
        <time>2012-05-09T21:00:51Z</time>
      </trkpt>
      <trkpt lat="59.9706149" lon="17.718436">
        <ele>33.3029</ele>
        <time>2012-05-09T21:00:56Z</time>
      </trkpt>
      <trkpt lat="59.9707157" lon="17.7185236">
        <ele>34.2642</ele>
        <time>2012-05-09T21:01:01Z</time>
      </trkpt>
      <trkpt lat="59.9708484" lon="17.7186323">
        <ele>37.6287</ele>
        <time>2012-05-09T21:01:07Z</time>
      </trkpt>
      <trkpt lat="59.9709783" lon="17.718751">
        <ele>37.1481</ele>
        <time>2012-05-09T21:01:13Z</time>
      </trkpt>
      <trkpt lat="59.9710991" lon="17.7188534">
        <ele>37.6287</ele>
        <time>2012-05-09T21:01:19Z</time>
      </trkpt>
      <trkpt lat="59.9711852" lon="17.718909">
        <ele>38.5901</ele>
        <time>2012-05-09T21:01:23Z</time>
      </trkpt>
      <trkpt lat="59.9712684" lon="17.7189881">
        <ele>39.5513</ele>
        <time>2012-05-09T21:01:27Z</time>
      </trkpt>
      <trkpt lat="59.9713566" lon="17.7190586">
        <ele>39.0707</ele>
        <time>2012-05-09T21:01:31Z</time>
      </trkpt>
      <trkpt lat="59.9714736" lon="17.7191769">
        <ele>38.1094</ele>
        <time>2012-05-09T21:01:36Z</time>
      </trkpt>
      <trkpt lat="59.971588" lon="17.7192768">
        <ele>36.6675</ele>
        <time>2012-05-09T21:01:41Z</time>
      </trkpt>
      <trkpt lat="59.9716694" lon="17.7193665">
        <ele>34.7449</ele>
        <time>2012-05-09T21:01:45Z</time>
      </trkpt>
      <trkpt lat="59.9717813" lon="17.7194679">
        <ele>33.3029</ele>
        <time>2012-05-09T21:01:50Z</time>
      </trkpt>
      <trkpt lat="59.9719425" lon="17.7196231">
        <ele>32.3416</ele>
        <time>2012-05-09T21:01:57Z</time>
      </trkpt>
      <trkpt lat="59.9720491" lon="17.7197164">
        <ele>30.8995</ele>
        <time>2012-05-09T21:02:02Z</time>
      </trkpt>
      <trkpt lat="59.9721497" lon="17.7197999">
        <ele>31.3801</ele>
        <time>2012-05-09T21:02:07Z</time>
      </trkpt>
      <trkpt lat="59.9722516" lon="17.7198937">
        <ele>31.3801</ele>
        <time>2012-05-09T21:02:12Z</time>
      </trkpt>
      <trkpt lat="59.9723626" lon="17.7199907">
        <ele>31.3801</ele>
        <time>2012-05-09T21:02:17Z</time>
      </trkpt>
      <trkpt lat="59.9724929" lon="17.7200983">
        <ele>31.3801</ele>
        <time>2012-05-09T21:02:23Z</time>
      </trkpt>
      <trkpt lat="59.972605" lon="17.7201916">
        <ele>32.3416</ele>
        <time>2012-05-09T21:02:28Z</time>
      </trkpt>
      <trkpt lat="59.9727493" lon="17.7203245">
        <ele>33.7834</ele>
        <time>2012-05-09T21:02:34Z</time>
      </trkpt>
      <trkpt lat="59.9728627" lon="17.7204447">
        <ele>34.2642</ele>
        <time>2012-05-09T21:02:39Z</time>
      </trkpt>
      <trkpt lat="59.9729575" lon="17.7205401">
        <ele>35.2255</ele>
        <time>2012-05-09T21:02:43Z</time>
      </trkpt>
      <trkpt lat="59.9730789" lon="17.7207028">
        <ele>35.2255</ele>
        <time>2012-05-09T21:02:49Z</time>
      </trkpt>
      <trkpt lat="59.9731837" lon="17.7208527">
        <ele>35.7061</ele>
        <time>2012-05-09T21:02:54Z</time>
      </trkpt>
      <trkpt lat="59.9732665" lon="17.7209782">
        <ele>35.2255</ele>
        <time>2012-05-09T21:02:58Z</time>
      </trkpt>
      <trkpt lat="59.973359" lon="17.7211375">
        <ele>34.7449</ele>
        <time>2012-05-09T21:03:03Z</time>
      </trkpt>
      <trkpt lat="59.9734432" lon="17.7213048">
        <ele>35.2255</ele>
        <time>2012-05-09T21:03:08Z</time>
      </trkpt>
      <trkpt lat="59.9735297" lon="17.7215054">
        <ele>34.7449</ele>
        <time>2012-05-09T21:03:14Z</time>
      </trkpt>
      <trkpt lat="59.9735989" lon="17.72169">
        <ele>32.8223</ele>
        <time>2012-05-09T21:03:19Z</time>
      </trkpt>
      <trkpt lat="59.9736752" lon="17.7219169">
        <ele>30.8995</ele>
        <time>2012-05-09T21:03:25Z</time>
      </trkpt>
      <trkpt lat="59.9737321" lon="17.7221326">
        <ele>30.8995</ele>
        <time>2012-05-09T21:03:30Z</time>
      </trkpt>
      <trkpt lat="59.9738109" lon="17.7223668">
        <ele>30.8995</ele>
        <time>2012-05-09T21:03:36Z</time>
      </trkpt>
      <trkpt lat="59.9738906" lon="17.7226097">
        <ele>31.3801</ele>
        <time>2012-05-09T21:03:42Z</time>
      </trkpt>
      <trkpt lat="59.9739596" lon="17.7228229">
        <ele>31.3801</ele>
        <time>2012-05-09T21:03:47Z</time>
      </trkpt>
      <trkpt lat="59.9740248" lon="17.7230848">
        <ele>30.8995</ele>
        <time>2012-05-09T21:03:53Z</time>
      </trkpt>
      <trkpt lat="59.9740638" lon="17.7233145">
        <ele>29.9381</ele>
        <time>2012-05-09T21:03:58Z</time>
      </trkpt>
      <trkpt lat="59.9740984" lon="17.7235589">
        <ele>30.4188</ele>
        <time>2012-05-09T21:04:03Z</time>
      </trkpt>
      <trkpt lat="59.9741436" lon="17.7238452">
        <ele>31.3801</ele>
        <time>2012-05-09T21:04:09Z</time>
      </trkpt>
      <trkpt lat="59.9741754" lon="17.724078">
        <ele>32.8223</ele>
        <time>2012-05-09T21:04:14Z</time>
      </trkpt>
      <trkpt lat="59.9742221" lon="17.7243873">
        <ele>33.3029</ele>
        <time>2012-05-09T21:04:21Z</time>
      </trkpt>
      <trkpt lat="59.9742575" lon="17.7246174">
        <ele>33.7834</ele>
        <time>2012-05-09T21:04:26Z</time>
      </trkpt>
      <trkpt lat="59.9742807" lon="17.7248034">
        <ele>34.2642</ele>
        <time>2012-05-09T21:04:30Z</time>
      </trkpt>
      <trkpt lat="59.9743222" lon="17.7250076">
        <ele>34.2642</ele>
        <time>2012-05-09T21:04:35Z</time>
      </trkpt>
      <trkpt lat="59.9743447" lon="17.7251945">
        <ele>34.2642</ele>
        <time>2012-05-09T21:04:39Z</time>
      </trkpt>
      <trkpt lat="59.9743932" lon="17.7255898">
        <ele>33.7834</ele>
        <time>2012-05-09T21:04:47Z</time>
      </trkpt>
      <trkpt lat="59.9744134" lon="17.7258263">
        <ele>34.2642</ele>
        <time>2012-05-09T21:04:52Z</time>
      </trkpt>
      <trkpt lat="59.9744251" lon="17.7260087">
        <ele>34.7449</ele>
        <time>2012-05-09T21:04:56Z</time>
      </trkpt>
      <trkpt lat="59.9744484" lon="17.726256">
        <ele>32.3416</ele>
        <time>2012-05-09T21:05:01Z</time>
      </trkpt>
      <trkpt lat="59.9744527" lon="17.7264213">
        <ele>29.4575</ele>
        <time>2012-05-09T21:05:06Z</time>
      </trkpt>
      <trkpt lat="59.9744688" lon="17.7265895">
        <ele>27.5349</ele>
        <time>2012-05-09T21:05:10Z</time>
      </trkpt>
      <trkpt lat="59.9744708" lon="17.7266256">
        <ele>27.0543</ele>
        <time>2012-05-09T21:05:11Z</time>
      </trkpt>
      <trkpt lat="59.9744537" lon="17.7268805">
        <ele>24.651</ele>
        <time>2012-05-09T21:05:16Z</time>
      </trkpt>
      <trkpt lat="59.9744516" lon="17.7270863">
        <ele>25.1317</ele>
        <time>2012-05-09T21:05:20Z</time>
      </trkpt>
      <trkpt lat="59.974462" lon="17.7274435">
        <ele>25.6123</ele>
        <time>2012-05-09T21:05:27Z</time>
      </trkpt>
      <trkpt lat="59.9744548" lon="17.7276902">
        <ele>26.0929</ele>
        <time>2012-05-09T21:05:32Z</time>
      </trkpt>
      <trkpt lat="59.9744491" lon="17.7277307">
        <ele>26.5736</ele>
        <time>2012-05-09T21:05:33Z</time>
      </trkpt>
      <trkpt lat="59.9744626" lon="17.7280761">
        <ele>27.0543</ele>
        <time>2012-05-09T21:05:40Z</time>
      </trkpt>
      <trkpt lat="59.9744768" lon="17.7283324">
        <ele>27.5349</ele>
        <time>2012-05-09T21:05:45Z</time>
      </trkpt>
      <trkpt lat="59.9745066" lon="17.7285619">
        <ele>26.5736</ele>
        <time>2012-05-09T21:05:50Z</time>
      </trkpt>
      <trkpt lat="59.9745055" lon="17.7288615">
        <ele>24.651</ele>
        <time>2012-05-09T21:05:56Z</time>
      </trkpt>
      <trkpt lat="59.9744971" lon="17.7289154">
        <ele>24.1703</ele>
        <time>2012-05-09T21:05:57Z</time>
      </trkpt>
      <trkpt lat="59.9744828" lon="17.729255">
        <ele>25.1317</ele>
        <time>2012-05-09T21:06:04Z</time>
      </trkpt>
      <trkpt lat="59.9744789" lon="17.7293002">
        <ele>24.651</ele>
        <time>2012-05-09T21:06:05Z</time>
      </trkpt>
      <trkpt lat="59.9744735" lon="17.7295085">
        <ele>24.1703</ele>
        <time>2012-05-09T21:06:09Z</time>
      </trkpt>
      <trkpt lat="59.9744634" lon="17.7297064">
        <ele>25.6123</ele>
        <time>2012-05-09T21:06:13Z</time>
      </trkpt>
      <trkpt lat="59.9744495" lon="17.7299963">
        <ele>26.0929</ele>
        <time>2012-05-09T21:06:19Z</time>
      </trkpt>
      <trkpt lat="59.9744403" lon="17.7302622">
        <ele>26.5736</ele>
        <time>2012-05-09T21:06:25Z</time>
      </trkpt>
      <trkpt lat="59.9744134" lon="17.7304631">
        <ele>26.0929</ele>
        <time>2012-05-09T21:06:29Z</time>
      </trkpt>
      <trkpt lat="59.9744129" lon="17.730502">
        <ele>26.5736</ele>
        <time>2012-05-09T21:06:30Z</time>
      </trkpt>
      <trkpt lat="59.9743836" lon="17.7307652">
        <ele>24.651</ele>
        <time>2012-05-09T21:06:36Z</time>
      </trkpt>
      <trkpt lat="59.9743552" lon="17.7310325">
        <ele>23.209</ele>
        <time>2012-05-09T21:06:41Z</time>
      </trkpt>
      <trkpt lat="59.974342" lon="17.7312498">
        <ele>22.2476</ele>
        <time>2012-05-09T21:06:46Z</time>
      </trkpt>
      <trkpt lat="59.9743313" lon="17.7315013">
        <ele>20.8057</ele>
        <time>2012-05-09T21:06:52Z</time>
      </trkpt>
      <trkpt lat="59.9743119" lon="17.7317411">
        <ele>17.4412</ele>
        <time>2012-05-09T21:06:58Z</time>
      </trkpt>
      <trkpt lat="59.9742889" lon="17.7320146">
        <ele>17.4412</ele>
        <time>2012-05-09T21:07:04Z</time>
      </trkpt>
      <trkpt lat="59.974294" lon="17.7322016">
        <ele>19.3638</ele>
        <time>2012-05-09T21:07:08Z</time>
      </trkpt>
      <trkpt lat="59.974309" lon="17.7324947">
        <ele>20.325</ele>
        <time>2012-05-09T21:07:14Z</time>
      </trkpt>
      <trkpt lat="59.9743117" lon="17.7325882">
        <ele>20.8057</ele>
        <time>2012-05-09T21:07:16Z</time>
      </trkpt>
      <trkpt lat="59.9743249" lon="17.7327963">
        <ele>21.767</ele>
        <time>2012-05-09T21:07:21Z</time>
      </trkpt>
      <trkpt lat="59.9743351" lon="17.7330511">
        <ele>22.2476</ele>
        <time>2012-05-09T21:07:27Z</time>
      </trkpt>
      <trkpt lat="59.9743272" lon="17.733244">
        <ele>22.2476</ele>
        <time>2012-05-09T21:07:31Z</time>
      </trkpt>
      <trkpt lat="59.9743098" lon="17.7334864">
        <ele>23.6896</ele>
        <time>2012-05-09T21:07:36Z</time>
      </trkpt>
      <trkpt lat="59.9743087" lon="17.7338073">
        <ele>27.0543</ele>
        <time>2012-05-09T21:07:43Z</time>
      </trkpt>
      <trkpt lat="59.9743127" lon="17.7341046">
        <ele>28.4962</ele>
        <time>2012-05-09T21:07:50Z</time>
      </trkpt>
      <trkpt lat="59.9743178" lon="17.7343949">
        <ele>29.9381</ele>
        <time>2012-05-09T21:07:56Z</time>
      </trkpt>
      <trkpt lat="59.9743166" lon="17.7346834">
        <ele>29.9381</ele>
        <time>2012-05-09T21:08:02Z</time>
      </trkpt>
      <trkpt lat="59.9743135" lon="17.7347306">
        <ele>29.9381</ele>
        <time>2012-05-09T21:08:03Z</time>
      </trkpt>
      <trkpt lat="59.9743294" lon="17.7350604">
        <ele>29.4575</ele>
        <time>2012-05-09T21:08:10Z</time>
      </trkpt>
      <trkpt lat="59.9743512" lon="17.7353728">
        <ele>28.9769</ele>
        <time>2012-05-09T21:08:17Z</time>
      </trkpt>
      <trkpt lat="59.9743583" lon="17.7354128">
        <ele>28.4962</ele>
        <time>2012-05-09T21:08:18Z</time>
      </trkpt>
      <trkpt lat="59.9743837" lon="17.7356334">
        <ele>28.4962</ele>
        <time>2012-05-09T21:08:23Z</time>
      </trkpt>
      <trkpt lat="59.9744119" lon="17.7358043">
        <ele>28.9769</ele>
        <time>2012-05-09T21:08:27Z</time>
      </trkpt>
      <trkpt lat="59.9744373" lon="17.735986">
        <ele>30.4188</ele>
        <time>2012-05-09T21:08:31Z</time>
      </trkpt>
      <trkpt lat="59.9744848" lon="17.7361483">
        <ele>30.4188</ele>
        <time>2012-05-09T21:08:35Z</time>
      </trkpt>
      <trkpt lat="59.9745385" lon="17.7363424">
        <ele>30.8995</ele>
        <time>2012-05-09T21:08:40Z</time>
      </trkpt>
      <trkpt lat="59.9746112" lon="17.7365446">
        <ele>30.8995</ele>
        <time>2012-05-09T21:08:45Z</time>
      </trkpt>
      <trkpt lat="59.9746764" lon="17.7367285">
        <ele>30.4188</ele>
        <time>2012-05-09T21:08:50Z</time>
      </trkpt>
      <trkpt lat="59.9747517" lon="17.7369117">
        <ele>30.8995</ele>
        <time>2012-05-09T21:08:55Z</time>
      </trkpt>
      <trkpt lat="59.9748325" lon="17.7371222">
        <ele>31.3801</ele>
        <time>2012-05-09T21:09:01Z</time>
      </trkpt>
      <trkpt lat="59.9749237" lon="17.7373325">
        <ele>31.8607</ele>
        <time>2012-05-09T21:09:07Z</time>
      </trkpt>
      <trkpt lat="59.974994" lon="17.7374983">
        <ele>31.8607</ele>
        <time>2012-05-09T21:09:12Z</time>
      </trkpt>
      <trkpt lat="59.9750327" lon="17.7375687">
        <ele>32.3416</ele>
        <time>2012-05-09T21:09:14Z</time>
      </trkpt>
      <trkpt lat="59.9751079" lon="17.7377293">
        <ele>33.3029</ele>
        <time>2012-05-09T21:09:19Z</time>
      </trkpt>
      <trkpt lat="59.9752126" lon="17.7378848">
        <ele>34.7449</ele>
        <time>2012-05-09T21:09:24Z</time>
      </trkpt>
      <trkpt lat="59.9752842" lon="17.7380141">
        <ele>35.2255</ele>
        <time>2012-05-09T21:09:28Z</time>
      </trkpt>
      <trkpt lat="59.975359" lon="17.7381692">
        <ele>35.2255</ele>
        <time>2012-05-09T21:09:33Z</time>
      </trkpt>
      <trkpt lat="59.9754285" lon="17.7382923">
        <ele>34.7449</ele>
        <time>2012-05-09T21:09:37Z</time>
      </trkpt>
      <trkpt lat="59.9755058" lon="17.7384468">
        <ele>34.7449</ele>
        <time>2012-05-09T21:09:42Z</time>
      </trkpt>
      <trkpt lat="59.975581" lon="17.7385689">
        <ele>35.7061</ele>
        <time>2012-05-09T21:09:46Z</time>
      </trkpt>
      <trkpt lat="59.9756541" lon="17.7386825">
        <ele>35.2255</ele>
        <time>2012-05-09T21:09:50Z</time>
      </trkpt>
      <trkpt lat="59.9757337" lon="17.7388136">
        <ele>36.6675</ele>
        <time>2012-05-09T21:09:54Z</time>
      </trkpt>
      <trkpt lat="59.9758306" lon="17.7389757">
        <ele>37.1481</ele>
        <time>2012-05-09T21:09:59Z</time>
      </trkpt>
      <trkpt lat="59.9759103" lon="17.7390982">
        <ele>37.1481</ele>
        <time>2012-05-09T21:10:03Z</time>
      </trkpt>
      <trkpt lat="59.9760124" lon="17.7392485">
        <ele>36.6675</ele>
        <time>2012-05-09T21:10:08Z</time>
      </trkpt>
      <trkpt lat="59.9761145" lon="17.7394495">
        <ele>36.6675</ele>
        <time>2012-05-09T21:10:14Z</time>
      </trkpt>
      <trkpt lat="59.9761869" lon="17.7395909">
        <ele>37.1481</ele>
        <time>2012-05-09T21:10:18Z</time>
      </trkpt>
      <trkpt lat="59.976304" lon="17.7397718">
        <ele>37.1481</ele>
        <time>2012-05-09T21:10:25Z</time>
      </trkpt>
      <trkpt lat="59.9763919" lon="17.7398112">
        <ele>36.6675</ele>
        <time>2012-05-09T21:10:29Z</time>
      </trkpt>
      <trkpt lat="59.9764657" lon="17.7397076">
        <ele>37.1481</ele>
        <time>2012-05-09T21:10:33Z</time>
      </trkpt>
      <trkpt lat="59.976543" lon="17.7395598">
        <ele>37.1481</ele>
        <time>2012-05-09T21:10:38Z</time>
      </trkpt>
      <trkpt lat="59.976663" lon="17.7394645">
        <ele>40.0321</ele>
        <time>2012-05-09T21:10:43Z</time>
      </trkpt>
      <trkpt lat="59.9767785" lon="17.7393489">
        <ele>40.0321</ele>
        <time>2012-05-09T21:10:49Z</time>
      </trkpt>
      <trkpt lat="59.9768831" lon="17.7393205">
        <ele>41.9547</ele>
        <time>2012-05-09T21:10:53Z</time>
      </trkpt>
      <trkpt lat="59.9769781" lon="17.7392384">
        <ele>42.916</ele>
        <time>2012-05-09T21:10:58Z</time>
      </trkpt>
      <trkpt lat="59.9770859" lon="17.7391909">
        <ele>46.7612</ele>
        <time>2012-05-09T21:11:02Z</time>
      </trkpt>
      <trkpt lat="59.9771824" lon="17.7390182">
        <ele>54.4518</ele>
        <time>2012-05-09T21:11:07Z</time>
      </trkpt>
      <trkpt lat="59.9773231" lon="17.7389473">
        <ele>63.5844</ele>
        <time>2012-05-09T21:11:11Z</time>
      </trkpt>
      <trkpt lat="59.9774887" lon="17.7389161">
        <ele>70.3135</ele>
        <time>2012-05-09T21:11:16Z</time>
      </trkpt>
      <trkpt lat="59.9775945" lon="17.7388674">
        <ele>70.7942</ele>
        <time>2012-05-09T21:11:20Z</time>
      </trkpt>
      <trkpt lat="59.977686" lon="17.7388363">
        <ele>67.9103</ele>
        <time>2012-05-09T21:11:24Z</time>
      </trkpt>
      <trkpt lat="59.9777696" lon="17.7388218">
        <ele>64.5457</ele>
        <time>2012-05-09T21:11:28Z</time>
      </trkpt>
      <trkpt lat="59.9778325" lon="17.7388374">
        <ele>60.2197</ele>
        <time>2012-05-09T21:11:32Z</time>
      </trkpt>
      <trkpt lat="59.9778964" lon="17.7389048">
        <ele>52.0486</ele>
        <time>2012-05-09T21:11:37Z</time>
      </trkpt>
      <trkpt lat="59.9779834" lon="17.7389685">
        <ele>47.7225</ele>
        <time>2012-05-09T21:11:41Z</time>
      </trkpt>
      <trkpt lat="59.9780855" lon="17.7390317">
        <ele>46.2806</ele>
        <time>2012-05-09T21:11:45Z</time>
      </trkpt>
      <trkpt lat="59.9781896" lon="17.7390777">
        <ele>47.7225</ele>
        <time>2012-05-09T21:11:49Z</time>
      </trkpt>
      <trkpt lat="59.9782907" lon="17.7391086">
        <ele>49.6453</ele>
        <time>2012-05-09T21:11:54Z</time>
      </trkpt>
      <trkpt lat="59.9784425" lon="17.7391066">
        <ele>57.3358</ele>
        <time>2012-05-09T21:11:59Z</time>
      </trkpt>
      <trkpt lat="59.9785443" lon="17.7391345">
        <ele>60.7003</ele>
        <time>2012-05-09T21:12:03Z</time>
      </trkpt>
      <trkpt lat="59.978672" lon="17.7391642">
        <ele>62.1423</ele>
        <time>2012-05-09T21:12:08Z</time>
      </trkpt>
      <trkpt lat="59.9787984" lon="17.7392001">
        <ele>61.181</ele>
        <time>2012-05-09T21:12:13Z</time>
      </trkpt>
      <trkpt lat="59.978851" lon="17.7392353">
        <ele>60.7003</ele>
        <time>2012-05-09T21:12:15Z</time>
      </trkpt>
      <trkpt lat="59.9789159" lon="17.7392436">
        <ele>58.2971</ele>
        <time>2012-05-09T21:12:18Z</time>
      </trkpt>
      <trkpt lat="59.9790118" lon="17.7393943">
        <ele>52.0486</ele>
        <time>2012-05-09T21:12:24Z</time>
      </trkpt>
      <trkpt lat="59.9790132" lon="17.7394247">
        <ele>50.126</ele>
        <time>2012-05-09T21:12:25Z</time>
      </trkpt>
    </trkseg>
  </trk>
</gpx>